Weather at Pista da Lagoa da Carrasqueira

Public forecast

Using degrees Celsius for public forecast. Weather courtesy of forecast.io.

Closest aviation weather report (METAR) to Pista da Lagoa da Carrasqueira

Closest report is Beja Airport / Airbase, 14.9 nm (27.7 km) ENE. Retrieved 2020/10/21 06:00 UTC (52 minutes ago):

LPBJ 210600Z 19008KT 9999 FEW030 14/13 Q1008

Closest aviation forecast (TAF) to Pista da Lagoa da Carrasqueira

Closest forecast is Beja Airport / Airbase, 14.9 nm (27.7 km) ENE. Retrieved 2020/10/21 06:18 UTC (35 minutes ago):

TAF LPBJ 210507Z 2106/2206 20010KT 9999 SCT020 TEMPO 2106/2206 6000 -SHRA BKN018 FEW020TCU PROB30 2106/2108 2000 BCFG BKN004 TEMPO 2110/2118 21015G25KT 4000 SHRA BKN012 SCT020CB PROB30 TEMPO 2112/2118 2000 TSRA BECMG 2117/2119 15005KT PROB40 2201/2206 2000 BCFG BKN003